sensor_id;sensor_type;location;lat;lon;timestamp;P1;P2;P0
39955;PMS5003;25631;51.516;-0.470;2022-09-01T00:01:26;5;5;
39955;PMS5003;25631;51.516;-0.470;2022-09-01T00:04:04;4;4;
39955;PMS5003;25631;51.516;-0.470;2022-09-01T00:06:41;4;4;
39955;PMS5003;25631;51.516;-0.470;2022-09-01T00:09:18;4;4;
39955;PMS5003;25631;51.516;-0.470;2022-09-01T00:11:57;5;5;
39955;PMS5003;25631;51.516;-0.470;2022-09-01T00:14:35;5;5;
39955;PMS5003;25631;51.516;-0.470;2022-09-01T00:17:14;5;5;
39955;PMS5003;25631;51.516;-0.470;2022-09-01T00:19:50;4;4;
39955;PMS5003;25631;51.516;-0.470;2022-09-01T00:22:27;4;4;
39955;PMS5003;25631;51.516;-0.470;2022-09-01T00:25:04;4;4;
39955;PMS5003;25631;51.516;-0.470;2022-09-01T00:27:41;4;4;
39955;PMS5003;25631;51.516;-0.470;2022-09-01T00:30:17;4;4;
39955;PMS5003;25631;51.516;-0.470;2022-09-01T00:32:55;4;4;
39955;PMS5003;25631;51.516;-0.470;2022-09-01T00:35:31;4;4;
39955;PMS5003;25631;51.516;-0.470;2022-09-01T00:38:07;4;4;
39955;PMS5003;25631;51.516;-0.470;2022-09-01T00:40:44;4;4;
39955;PMS5003;25631;51.516;-0.470;2022-09-01T00:43:22;2;1;
39955;PMS5003;25631;51.516;-0.470;2022-09-01T00:46:13;2;1;
39955;PMS5003;25631;51.516;-0.470;2022-09-01T00:48:55;2;1;
39955;PMS5003;25631;51.516;-0.470;2022-09-01T00:51:35;2;1;
39955;PMS5003;25631;51.516;-0.470;2022-09-01T00:54:14;2;1;
39955;PMS5003;25631;51.516;-0.470;2022-09-01T00:56:56;2;1;
39955;PMS5003;25631;51.516;-0.470;2022-09-01T00:59:33;2;1;
39955;PMS5003;25631;51.516;-0.470;2022-09-01T01:02:13;2;1;
39955;PMS5003;25631;51.516;-0.470;2022-09-01T01:04:50;2;1;
39955;PMS5003;25631;51.516;-0.470;2022-09-01T01:07:26;2;1;
39955;PMS5003;25631;51.516;-0.470;2022-09-01T01:10:04;2;2;
39955;PMS5003;25631;51.516;-0.470;2022-09-01T01:12:42;2;2;
39955;PMS5003;25631;51.516;-0.470;2022-09-01T01:15:19;2;2;
39955;PMS5003;25631;51.516;-0.470;2022-09-01T01:17:56;1;1;
39955;PMS5003;25631;51.516;-0.470;2022-09-01T01:20:32;1;1;
39955;PMS5003;25631;51.516;-0.470;2022-09-01T01:23:09;1;1;
39955;PMS5003;25631;51.516;-0.470;2022-09-01T01:25:55;3;3;
39955;PMS5003;25631;51.516;-0.470;2022-09-01T01:28:34;3;3;
39955;PMS5003;25631;51.516;-0.470;2022-09-01T01:31:13;3;2;
39955;PMS5003;25631;51.516;-0.470;2022-09-01T01:33:52;3;2;
39955;PMS5003;25631;51.516;-0.470;2022-09-01T01:36:31;3;2;
39955;PMS5003;25631;51.516;-0.470;2022-09-01T01:39:10;3;2;
39955;PMS5003;25631;51.516;-0.470;2022-09-01T01:41:49;3;2;
39955;PMS5003;25631;51.516;-0.470;2022-09-01T01:44:26;3;2;
39955;PMS5003;25631;51.516;-0.470;2022-09-01T01:47:03;4;3;
39955;PMS5003;25631;51.516;-0.470;2022-09-01T01:49:42;4;3;
39955;PMS5003;25631;51.516;-0.470;2022-09-01T01:52:18;4;3;
39955;PMS5003;25631;51.516;-0.470;2022-09-01T01:54:55;3;2;
39955;PMS5003;25631;51.516;-0.470;2022-09-01T01:57:37;3;2;
39955;PMS5003;25631;51.516;-0.470;2022-09-01T02:00:15;3;2;
39955;PMS5003;25631;51.516;-0.470;2022-09-01T02:02:54;4;2;
39955;PMS5003;25631;51.516;-0.470;2022-09-01T02:05:32;4;2;
39955;PMS5003;25631;51.516;-0.470;2022-09-01T02:08:11;3;3;
39955;PMS5003;25631;51.516;-0.470;2022-09-01T02:10:49;3;3;
39955;PMS5003;25631;51.516;-0.470;2022-09-01T02:13:27;3;3;
39955;PMS5003;25631;51.516;-0.470;2022-09-01T02:16:06;3;3;
39955;PMS5003;25631;51.516;-0.470;2022-09-01T02:18:44;3;3;
39955;PMS5003;25631;51.516;-0.470;2022-09-01T02:21:22;3;3;
39955;PMS5003;25631;51.516;-0.470;2022-09-01T02:24:01;3;3;
39955;PMS5003;25631;51.516;-0.470;2022-09-01T02:26:39;3;3;
39955;PMS5003;25631;51.516;-0.470;2022-09-01T02:29:19;3;3;
39955;PMS5003;25631;51.516;-0.470;2022-09-01T02:31:56;2;2;
39955;PMS5003;25631;51.516;-0.470;2022-09-01T02:34:33;2;2;
39955;PMS5003;25631;51.516;-0.470;2022-09-01T02:37:10;3;3;
39955;PMS5003;25631;51.516;-0.470;2022-09-01T02:39:46;3;3;
39955;PMS5003;25631;51.516;-0.470;2022-09-01T02:42:22;3;3;
39955;PMS5003;25631;51.516;-0.470;2022-09-01T02:44:59;3;3;
39955;PMS5003;25631;51.516;-0.470;2022-09-01T02:47:35;3;3;
39955;PMS5003;25631;51.516;-0.470;2022-09-01T02:50:12;6;4;
39955;PMS5003;25631;51.516;-0.470;2022-09-01T02:52:49;6;4;
39955;PMS5003;25631;51.516;-0.470;2022-09-01T02:55:26;6;4;
39955;PMS5003;25631;51.516;-0.470;2022-09-01T02:58:03;5;3;
39955;PMS5003;25631;51.516;-0.470;2022-09-01T03:00:39;5;3;
39955;PMS5003;25631;51.516;-0.470;2022-09-01T03:03:16;5;3;
39955;PMS5003;25631;51.516;-0.470;2022-09-01T03:05:53;4;3;
39955;PMS5003;25631;51.516;-0.470;2022-09-01T03:08:29;4;3;
39955;PMS5003;25631;51.516;-0.470;2022-09-01T03:11:06;4;3;
39955;PMS5003;25631;51.516;-0.470;2022-09-01T03:13:42;5;3;
39955;PMS5003;25631;51.516;-0.470;2022-09-01T03:16:20;5;3;
39955;PMS5003;25631;51.516;-0.470;2022-09-01T03:18:56;5;3;
39955;PMS5003;25631;51.516;-0.470;2022-09-01T03:21:33;4;3;
39955;PMS5003;25631;51.516;-0.470;2022-09-01T03:24:11;4;3;
39955;PMS5003;25631;51.516;-0.470;2022-09-01T03:26:51;4;3;
39955;PMS5003;25631;51.516;-0.470;2022-09-01T03:29:27;4;3;
39955;PMS5003;25631;51.516;-0.470;2022-09-01T03:32:04;4;3;
39955;PMS5003;25631;51.516;-0.470;2022-09-01T03:34:41;4;3;
39955;PMS5003;25631;51.516;-0.470;2022-09-01T03:37:17;4;3;
39955;PMS5003;25631;51.516;-0.470;2022-09-01T03:39:53;6;3;
39955;PMS5003;25631;51.516;-0.470;2022-09-01T03:42:30;6;3;
39955;PMS5003;25631;51.516;-0.470;2022-09-01T03:45:07;6;3;
39955;PMS5003;25631;51.516;-0.470;2022-09-01T03:47:44;7;4;
39955;PMS5003;25631;51.516;-0.470;2022-09-01T03:50:21;7;4;
39955;PMS5003;25631;51.516;-0.470;2022-09-01T03:52:59;7;4;
39955;PMS5003;25631;51.516;-0.470;2022-09-01T03:55:36;6;4;
39955;PMS5003;25631;51.516;-0.470;2022-09-01T03:58:13;6;4;
39955;PMS5003;25631;51.516;-0.470;2022-09-01T04:00:52;6;4;
39955;PMS5003;25631;51.516;-0.470;2022-09-01T04:03:32;7;4;
39955;PMS5003;25631;51.516;-0.470;2022-09-01T04:06:09;7;4;
39955;PMS5003;25631;51.516;-0.470;2022-09-01T04:08:45;7;4;
39955;PMS5003;25631;51.516;-0.470;2022-09-01T04:11:22;7;4;
39955;PMS5003;25631;51.516;-0.470;2022-09-01T04:13:58;6;4;
39955;PMS5003;25631;51.516;-0.470;2022-09-01T04:16:35;4;4;
39955;PMS5003;25631;51.516;-0.470;2022-09-01T04:19:11;4;4;
39955;PMS5003;25631;51.516;-0.470;2022-09-01T04:21:50;4;4;
39955;PMS5003;25631;51.516;-0.470;2022-09-01T04:24:29;4;4;
39955;PMS5003;25631;51.516;-0.470;2022-09-01T04:27:07;4;4;
39955;PMS5003;25631;51.516;-0.470;2022-09-01T04:29:43;4;4;
39955;PMS5003;25631;51.516;-0.470;2022-09-01T04:32:20;4;4;
39955;PMS5003;25631;51.516;-0.470;2022-09-01T04:34:56;4;4;
39955;PMS5003;25631;51.516;-0.470;2022-09-01T04:37:33;4;4;
39955;PMS5003;25631;51.516;-0.470;2022-09-01T04:40:09;4;4;
39955;PMS5003;25631;51.516;-0.470;2022-09-01T04:42:46;4;4;
39955;PMS5003;25631;51.516;-0.470;2022-09-01T04:45:22;4;4;
39955;PMS5003;25631;51.516;-0.470;2022-09-01T04:47:58;4;4;
39955;PMS5003;25631;51.516;-0.470;2022-09-01T04:50:35;4;4;
39955;PMS5003;25631;51.516;-0.470;2022-09-01T04:53:14;4;4;
39955;PMS5003;25631;51.516;-0.470;2022-09-01T04:55:51;8;7;
39955;PMS5003;25631;51.516;-0.470;2022-09-01T04:58:27;8;7;
39955;PMS5003;25631;51.516;-0.470;2022-09-01T05:01:12;8;7;
39955;PMS5003;25631;51.516;-0.470;2022-09-01T05:03:50;8;7;
39955;PMS5003;25631;51.516;-0.470;2022-09-01T05:06:29;8;7;
39955;PMS5003;25631;51.516;-0.470;2022-09-01T05:09:06;8;7;
39955;PMS5003;25631;51.516;-0.470;2022-09-01T05:11:43;8;7;
39955;PMS5003;25631;51.516;-0.470;2022-09-01T05:14:20;8;7;
39955;PMS5003;25631;51.516;-0.470;2022-09-01T05:16:57;8;7;
39955;PMS5003;25631;51.516;-0.470;2022-09-01T05:19:33;8;7;
39955;PMS5003;25631;51.516;-0.470;2022-09-01T05:22:10;8;7;
39955;PMS5003;25631;51.516;-0.470;2022-09-01T05:24:46;7;7;
39955;PMS5003;25631;51.516;-0.470;2022-09-01T05:27:22;7;7;
39955;PMS5003;25631;51.516;-0.470;2022-09-01T05:29:59;7;7;
39955;PMS5003;25631;51.516;-0.470;2022-09-01T05:32:36;7;6;
39955;PMS5003;25631;51.516;-0.470;2022-09-01T05:35:13;7;6;
39955;PMS5003;25631;51.516;-0.470;2022-09-01T05:37:50;6;5;
39955;PMS5003;25631;51.516;-0.470;2022-09-01T05:40:26;6;5;
39955;PMS5003;25631;51.516;-0.470;2022-09-01T05:43:03;5;4;
39955;PMS5003;25631;51.516;-0.470;2022-09-01T05:45:39;5;4;
39955;PMS5003;25631;51.516;-0.470;2022-09-01T05:48:16;5;4;
39955;PMS5003;25631;51.516;-0.470;2022-09-01T05:50:53;6;5;
39955;PMS5003;25631;51.516;-0.470;2022-09-01T05:53:29;6;5;
39955;PMS5003;25631;51.516;-0.470;2022-09-01T05:56:06;6;5;
39955;PMS5003;25631;51.516;-0.470;2022-09-01T05:58:43;5;5;
39955;PMS5003;25631;51.516;-0.470;2022-09-01T06:01:21;4;4;
39955;PMS5003;25631;51.516;-0.470;2022-09-01T06:04:00;4;4;
39955;PMS5003;25631;51.516;-0.470;2022-09-01T06:06:38;5;4;
39955;PMS5003;25631;51.516;-0.470;2022-09-01T06:09:16;6;5;
39955;PMS5003;25631;51.516;-0.470;2022-09-01T06:11:53;6;5;
39955;PMS5003;25631;51.516;-0.470;2022-09-01T06:14:29;6;5;
39955;PMS5003;25631;51.516;-0.470;2022-09-01T06:17:05;6;5;
39955;PMS5003;25631;51.516;-0.470;2022-09-01T06:19:42;6;5;
39955;PMS5003;25631;51.516;-0.470;2022-09-01T06:22:19;6;5;
39955;PMS5003;25631;51.516;-0.470;2022-09-01T06:24:55;6;5;
39955;PMS5003;25631;51.516;-0.470;2022-09-01T06:27:32;5;4;
39955;PMS5003;25631;51.516;-0.470;2022-09-01T06:30:09;5;4;
39955;PMS5003;25631;51.516;-0.470;2022-09-01T06:32:47;4;4;
39955;PMS5003;25631;51.516;-0.470;2022-09-01T06:35:24;4;4;
39955;PMS5003;25631;51.516;-0.470;2022-09-01T06:38:00;4;4;
39955;PMS5003;25631;51.516;-0.470;2022-09-01T06:40:37;4;4;
39955;PMS5003;25631;51.516;-0.470;2022-09-01T06:43:14;4;4;
39955;PMS5003;25631;51.516;-0.470;2022-09-01T06:45:51;4;4;
39955;PMS5003;25631;51.516;-0.470;2022-09-01T06:48:27;4;3;
39955;PMS5003;25631;51.516;-0.470;2022-09-01T06:51:04;4;3;
39955;PMS5003;25631;51.516;-0.470;2022-09-01T06:53:41;4;3;
39955;PMS5003;25631;51.516;-0.470;2022-09-01T06:56:18;5;4;
39955;PMS5003;25631;51.516;-0.470;2022-09-01T06:58:54;5;4;
39955;PMS5003;25631;51.516;-0.470;2022-09-01T07:01:32;5;4;
39955;PMS5003;25631;51.516;-0.470;2022-09-01T07:04:09;5;4;
39955;PMS5003;25631;51.516;-0.470;2022-09-01T07:06:46;5;4;
39955;PMS5003;25631;51.516;-0.470;2022-09-01T07:09:22;4;4;
39955;PMS5003;25631;51.516;-0.470;2022-09-01T07:11:59;4;4;
39955;PMS5003;25631;51.516;-0.470;2022-09-01T07:14:35;4;4;
39955;PMS5003;25631;51.516;-0.470;2022-09-01T07:17:11;5;4;
39955;PMS5003;25631;51.516;-0.470;2022-09-01T07:19:48;5;4;
39955;PMS5003;25631;51.516;-0.470;2022-09-01T07:22:24;5;4;
39955;PMS5003;25631;51.516;-0.470;2022-09-01T07:25:00;5;4;
39955;PMS5003;25631;51.516;-0.470;2022-09-01T07:27:37;5;4;
39955;PMS5003;25631;51.516;-0.470;2022-09-01T07:30:15;5;4;
39955;PMS5003;25631;51.516;-0.470;2022-09-01T07:32:52;5;4;
39955;PMS5003;25631;51.516;-0.470;2022-09-01T07:35:29;5;4;
39955;PMS5003;25631;51.516;-0.470;2022-09-01T07:38:05;5;4;
39955;PMS5003;25631;51.516;-0.470;2022-09-01T07:40:42;6;5;
39955;PMS5003;25631;51.516;-0.470;2022-09-01T07:43:19;7;3;
39955;PMS5003;25631;51.516;-0.470;2022-09-01T07:45:57;7;3;
39955;PMS5003;25631;51.516;-0.470;2022-09-01T07:48:33;7;3;
39955;PMS5003;25631;51.516;-0.470;2022-09-01T07:51:10;7;3;
39955;PMS5003;25631;51.516;-0.470;2022-09-01T07:53:47;6;3;
39955;PMS5003;25631;51.516;-0.470;2022-09-01T07:56:24;6;3;
39955;PMS5003;25631;51.516;-0.470;2022-09-01T07:59:00;6;3;
39955;PMS5003;25631;51.516;-0.470;2022-09-01T08:01:37;7;3;
39955;PMS5003;25631;51.516;-0.470;2022-09-01T08:04:13;7;3;
39955;PMS5003;25631;51.516;-0.470;2022-09-01T08:06:49;7;3;
39955;PMS5003;25631;51.516;-0.470;2022-09-01T08:09:26;7;3;
39955;PMS5003;25631;51.516;-0.470;2022-09-01T08:12:03;7;3;
39955;PMS5003;25631;51.516;-0.470;2022-09-01T08:14:40;7;3;
39955;PMS5003;25631;51.516;-0.470;2022-09-01T08:17:16;8;3;
39955;PMS5003;25631;51.516;-0.470;2022-09-01T08:19:52;8;3;
39955;PMS5003;25631;51.516;-0.470;2022-09-01T08:22:29;8;3;
39955;PMS5003;25631;51.516;-0.470;2022-09-01T08:25:07;2;2;
39955;PMS5003;25631;51.516;-0.470;2022-09-01T08:27:44;2;2;
39955;PMS5003;25631;51.516;-0.470;2022-09-01T08:30:21;2;2;
39955;PMS5003;25631;51.516;-0.470;2022-09-01T08:32:57;2;2;
39955;PMS5003;25631;51.516;-0.470;2022-09-01T08:35:34;2;2;
39955;PMS5003;25631;51.516;-0.470;2022-09-01T08:38:13;1;1;
39955;PMS5003;25631;51.516;-0.470;2022-09-01T08:40:50;1;1;
39955;PMS5003;25631;51.516;-0.470;2022-09-01T08:43:33;1;1;
39955;PMS5003;25631;51.516;-0.470;2022-09-01T08:46:25;2;2;
39955;PMS5003;25631;51.516;-0.470;2022-09-01T08:49:05;2;2;
39955;PMS5003;25631;51.516;-0.470;2022-09-01T08:51:45;2;2;
39955;PMS5003;25631;51.516;-0.470;2022-09-01T08:54:31;2;2;
39955;PMS5003;25631;51.516;-0.470;2022-09-01T08:57:15;2;2;
39955;PMS5003;25631;51.516;-0.470;2022-09-01T08:59:59;2;2;
39955;PMS5003;25631;51.516;-0.470;2022-09-01T09:02:51;2;2;
39955;PMS5003;25631;51.516;-0.470;2022-09-01T09:08:55;4;3;
39955;PMS5003;25631;51.516;-0.470;2022-09-01T09:11:56;4;3;
39955;PMS5003;25631;51.516;-0.470;2022-09-01T09:14:53;4;3;
39955;PMS5003;25631;51.516;-0.470;2022-09-01T09:17:50;4;3;
39955;PMS5003;25631;51.516;-0.470;2022-09-01T09:20:41;4;3;
39955;PMS5003;25631;51.516;-0.470;2022-09-01T09:23:24;3;2;
39955;PMS5003;25631;51.516;-0.470;2022-09-01T09:26:07;3;2;
39955;PMS5003;25631;51.516;-0.470;2022-09-01T09:28:44;3;2;
39955;PMS5003;25631;51.516;-0.470;2022-09-01T09:31:25;3;2;
39955;PMS5003;25631;51.516;-0.470;2022-09-01T09:34:04;3;2;
39955;PMS5003;25631;51.516;-0.470;2022-09-01T09:36:52;2;1;
39955;PMS5003;25631;51.516;-0.470;2022-09-01T09:39:28;2;1;
39955;PMS5003;25631;51.516;-0.470;2022-09-01T09:42:06;2;1;
39955;PMS5003;25631;51.516;-0.470;2022-09-01T09:44:47;3;2;
39955;PMS5003;25631;51.516;-0.470;2022-09-01T09:47:34;3;2;
39955;PMS5003;25631;51.516;-0.470;2022-09-01T09:50:15;3;2;
39955;PMS5003;25631;51.516;-0.470;2022-09-01T09:53:10;0;0;
39955;PMS5003;25631;51.516;-0.470;2022-09-01T09:55:51;0;0;
39955;PMS5003;25631;51.516;-0.470;2022-09-01T09:58:34;1;1;
39955;PMS5003;25631;51.516;-0.470;2022-09-01T10:01:14;1;1;
39955;PMS5003;25631;51.516;-0.470;2022-09-01T10:04:04;1;1;
39955;PMS5003;25631;51.516;-0.470;2022-09-01T10:06:40;1;1;
39955;PMS5003;25631;51.516;-0.470;2022-09-01T10:09:32;0;0;
39955;PMS5003;25631;51.516;-0.470;2022-09-01T10:12:11;0;0;
39955;PMS5003;25631;51.516;-0.470;2022-09-01T10:14:50;0;0;
39955;PMS5003;25631;51.516;-0.470;2022-09-01T10:17:29;1;1;
39955;PMS5003;25631;51.516;-0.470;2022-09-01T10:20:10;2;1;
39955;PMS5003;25631;51.516;-0.470;2022-09-01T10:22:51;2;1;
39955;PMS5003;25631;51.516;-0.470;2022-09-01T10:25:30;1;0;
39955;PMS5003;25631;51.516;-0.470;2022-09-01T10:28:10;1;0;
39955;PMS5003;25631;51.516;-0.470;2022-09-01T10:30:51;1;0;
39955;PMS5003;25631;51.516;-0.470;2022-09-01T10:33:29;1;0;
39955;PMS5003;25631;51.516;-0.470;2022-09-01T10:36:05;1;1;
39955;PMS5003;25631;51.516;-0.470;2022-09-01T10:38:43;1;1;
39955;PMS5003;25631;51.516;-0.470;2022-09-01T10:41:54;1;1;
39955;PMS5003;25631;51.516;-0.470;2022-09-01T10:44:32;1;1;
39955;PMS5003;25631;51.516;-0.470;2022-09-01T10:47:11;1;1;
39955;PMS5003;25631;51.516;-0.470;2022-09-01T10:50:01;1;1;
39955;PMS5003;25631;51.516;-0.470;2022-09-01T10:53:17;1;1;
39955;PMS5003;25631;51.516;-0.470;2022-09-01T10:56:14;1;1;
39955;PMS5003;25631;51.516;-0.470;2022-09-01T10:58:58;1;1;
39955;PMS5003;25631;51.516;-0.470;2022-09-01T11:02:13;1;1;
39955;PMS5003;25631;51.516;-0.470;2022-09-01T11:05:22;1;1;
39955;PMS5003;25631;51.516;-0.470;2022-09-01T11:07:59;1;1;
39955;PMS5003;25631;51.516;-0.470;2022-09-01T11:11:20;1;1;
39955;PMS5003;25631;51.516;-0.470;2022-09-01T11:14:03;1;1;
39955;PMS5003;25631;51.516;-0.470;2022-09-01T11:17:24;1;1;
39955;PMS5003;25631;51.516;-0.470;2022-09-01T11:20:05;1;1;
39955;PMS5003;25631;51.516;-0.470;2022-09-01T11:22:43;2;1;
39955;PMS5003;25631;51.516;-0.470;2022-09-01T11:25:35;2;1;
39955;PMS5003;25631;51.516;-0.470;2022-09-01T11:28:38;2;1;
39955;PMS5003;25631;51.516;-0.470;2022-09-01T11:31:19;2;1;
39955;PMS5003;25631;51.516;-0.470;2022-09-01T11:34:02;2;1;
39955;PMS5003;25631;51.516;-0.470;2022-09-01T11:36:50;2;1;
39955;PMS5003;25631;51.516;-0.470;2022-09-01T11:39:31;2;1;
39955;PMS5003;25631;51.516;-0.470;2022-09-01T11:42:15;2;2;
39955;PMS5003;25631;51.516;-0.470;2022-09-01T11:44:55;2;2;
39955;PMS5003;25631;51.516;-0.470;2022-09-01T11:47:37;2;2;
39955;PMS5003;25631;51.516;-0.470;2022-09-01T11:50:17;2;2;
39955;PMS5003;25631;51.516;-0.470;2022-09-01T11:52:56;2;2;
39955;PMS5003;25631;51.516;-0.470;2022-09-01T11:55:35;2;2;
39955;PMS5003;25631;51.516;-0.470;2022-09-01T11:58:28;2;2;
39955;PMS5003;25631;51.516;-0.470;2022-09-01T12:01:15;2;2;
39955;PMS5003;25631;51.516;-0.470;2022-09-01T12:03:52;2;2;
39955;PMS5003;25631;51.516;-0.470;2022-09-01T12:06:29;2;2;
39955;PMS5003;25631;51.516;-0.470;2022-09-01T12:09:05;2;2;
39955;PMS5003;25631;51.516;-0.470;2022-09-01T12:11:42;2;2;
39955;PMS5003;25631;51.516;-0.470;2022-09-01T12:14:18;2;2;
39955;PMS5003;25631;51.516;-0.470;2022-09-01T12:16:58;2;2;
39955;PMS5003;25631;51.516;-0.470;2022-09-01T12:19:36;2;2;
39955;PMS5003;25631;51.516;-0.470;2022-09-01T12:22:13;2;2;
39955;PMS5003;25631;51.516;-0.470;2022-09-01T12:24:52;2;2;
39955;PMS5003;25631;51.516;-0.470;2022-09-01T12:27:29;2;1;
39955;PMS5003;25631;51.516;-0.470;2022-09-01T12:30:06;2;1;
39955;PMS5003;25631;51.516;-0.470;2022-09-01T12:32:44;2;1;
39955;PMS5003;25631;51.516;-0.470;2022-09-01T12:35:21;1;1;
39955;PMS5003;25631;51.516;-0.470;2022-09-01T12:38:32;1;1;
39955;PMS5003;25631;51.516;-0.470;2022-09-01T12:41:21;1;1;
39955;PMS5003;25631;51.516;-0.470;2022-09-01T12:44:33;1;1;
39955;PMS5003;25631;51.516;-0.470;2022-09-01T12:47:50;4;2;
39955;PMS5003;25631;51.516;-0.470;2022-09-01T12:50:42;3;2;
39955;PMS5003;25631;51.516;-0.470;2022-09-01T12:53:21;3;2;
39955;PMS5003;25631;51.516;-0.470;2022-09-01T12:56:02;3;2;
39955;PMS5003;25631;51.516;-0.470;2022-09-01T12:58:41;4;2;
39955;PMS5003;25631;51.516;-0.470;2022-09-01T13:01:24;4;2;
39955;PMS5003;25631;51.516;-0.470;2022-09-01T13:04:08;4;2;
39955;PMS5003;25631;51.516;-0.470;2022-09-01T13:06:48;4;3;
39955;PMS5003;25631;51.516;-0.470;2022-09-01T13:09:25;3;2;
39955;PMS5003;25631;51.516;-0.470;2022-09-01T13:12:17;3;2;
39955;PMS5003;25631;51.516;-0.470;2022-09-01T13:14:56;2;1;
39955;PMS5003;25631;51.516;-0.470;2022-09-01T13:17:32;3;2;
39955;PMS5003;25631;51.516;-0.470;2022-09-01T13:20:09;3;2;
39955;PMS5003;25631;51.516;-0.470;2022-09-01T13:22:46;3;2;
39955;PMS5003;25631;51.516;-0.470;2022-09-01T13:25:23;3;2;
39955;PMS5003;25631;51.516;-0.470;2022-09-01T13:27:59;3;2;
39955;PMS5003;25631;51.516;-0.470;2022-09-01T13:30:36;2;2;
39955;PMS5003;25631;51.516;-0.470;2022-09-01T13:33:13;2;2;
39955;PMS5003;25631;51.516;-0.470;2022-09-01T13:35:50;2;2;
39955;PMS5003;25631;51.516;-0.470;2022-09-01T13:38:26;3;3;
39955;PMS5003;25631;51.516;-0.470;2022-09-01T13:41:03;3;3;
39955;PMS5003;25631;51.516;-0.470;2022-09-01T13:43:39;3;3;
39955;PMS5003;25631;51.516;-0.470;2022-09-01T13:46:16;3;3;
39955;PMS5003;25631;51.516;-0.470;2022-09-01T13:48:52;3;3;
39955;PMS5003;25631;51.516;-0.470;2022-09-01T13:51:28;3;3;
39955;PMS5003;25631;51.516;-0.470;2022-09-01T13:54:05;3;3;
39955;PMS5003;25631;51.516;-0.470;2022-09-01T13:56:41;3;3;
39955;PMS5003;25631;51.516;-0.470;2022-09-01T13:59:17;3;2;
39955;PMS5003;25631;51.516;-0.470;2022-09-01T14:01:54;3;2;
39955;PMS5003;25631;51.516;-0.470;2022-09-01T14:04:30;3;2;
39955;PMS5003;25631;51.516;-0.470;2022-09-01T14:07:06;3;2;
39955;PMS5003;25631;51.516;-0.470;2022-09-01T14:09:43;3;2;
39955;PMS5003;25631;51.516;-0.470;2022-09-01T14:12:19;2;2;
39955;PMS5003;25631;51.516;-0.470;2022-09-01T14:14:56;2;2;
39955;PMS5003;25631;51.516;-0.470;2022-09-01T14:17:33;2;2;
39955;PMS5003;25631;51.516;-0.470;2022-09-01T14:20:11;2;2;
39955;PMS5003;25631;51.516;-0.470;2022-09-01T14:22:50;2;2;
39955;PMS5003;25631;51.516;-0.470;2022-09-01T14:25:27;1;1;
39955;PMS5003;25631;51.516;-0.470;2022-09-01T14:28:03;1;1;
39955;PMS5003;25631;51.516;-0.470;2022-09-01T14:30:40;1;1;
39955;PMS5003;25631;51.516;-0.470;2022-09-01T14:33:17;1;1;
39955;PMS5003;25631;51.516;-0.470;2022-09-01T14:35:54;1;1;
39955;PMS5003;25631;51.516;-0.470;2022-09-01T14:38:31;1;1;
39955;PMS5003;25631;51.516;-0.470;2022-09-01T14:41:08;1;1;
39955;PMS5003;25631;51.516;-0.470;2022-09-01T14:43:48;1;1;
39955;PMS5003;25631;51.516;-0.470;2022-09-01T14:46:25;1;1;
39955;PMS5003;25631;51.516;-0.470;2022-09-01T14:49:02;1;1;
39955;PMS5003;25631;51.516;-0.470;2022-09-01T14:51:39;1;1;
39955;PMS5003;25631;51.516;-0.470;2022-09-01T14:54:15;2;2;
39955;PMS5003;25631;51.516;-0.470;2022-09-01T14:56:51;2;2;
39955;PMS5003;25631;51.516;-0.470;2022-09-01T14:59:27;2;2;
39955;PMS5003;25631;51.516;-0.470;2022-09-01T15:02:04;2;2;
39955;PMS5003;25631;51.516;-0.470;2022-09-01T15:04:40;2;2;
39955;PMS5003;25631;51.516;-0.470;2022-09-01T15:07:16;2;2;
39955;PMS5003;25631;51.516;-0.470;2022-09-01T15:09:53;2;2;
39955;PMS5003;25631;51.516;-0.470;2022-09-01T15:12:29;2;2;
39955;PMS5003;25631;51.516;-0.470;2022-09-01T15:15:07;2;2;
39955;PMS5003;25631;51.516;-0.470;2022-09-01T15:17:44;2;2;
39955;PMS5003;25631;51.516;-0.470;2022-09-01T15:20:21;2;2;
39955;PMS5003;25631;51.516;-0.470;2022-09-01T15:22:59;2;2;
39955;PMS5003;25631;51.516;-0.470;2022-09-01T15:25:36;2;2;
39955;PMS5003;25631;51.516;-0.470;2022-09-01T15:28:13;2;2;
39955;PMS5003;25631;51.516;-0.470;2022-09-01T15:30:50;2;2;
39955;PMS5003;25631;51.516;-0.470;2022-09-01T15:33:27;2;2;
39955;PMS5003;25631;51.516;-0.470;2022-09-01T15:36:04;2;2;
39955;PMS5003;25631;51.516;-0.470;2022-09-01T15:38:41;2;2;
39955;PMS5003;25631;51.516;-0.470;2022-09-01T15:41:18;2;2;
39955;PMS5003;25631;51.516;-0.470;2022-09-01T15:43:56;2;2;
39955;PMS5003;25631;51.516;-0.470;2022-09-01T15:46:33;2;2;
39955;PMS5003;25631;51.516;-0.470;2022-09-01T15:49:11;2;2;
39955;PMS5003;25631;51.516;-0.470;2022-09-01T15:51:47;2;2;
39955;PMS5003;25631;51.516;-0.470;2022-09-01T15:54:25;2;2;
39955;PMS5003;25631;51.516;-0.470;2022-09-01T15:57:02;2;2;
39955;PMS5003;25631;51.516;-0.470;2022-09-01T15:59:38;2;2;
39955;PMS5003;25631;51.516;-0.470;2022-09-01T16:02:14;2;2;
39955;PMS5003;25631;51.516;-0.470;2022-09-01T16:04:51;2;2;
39955;PMS5003;25631;51.516;-0.470;2022-09-01T16:07:27;2;2;
39955;PMS5003;25631;51.516;-0.470;2022-09-01T16:10:04;2;2;
39955;PMS5003;25631;51.516;-0.470;2022-09-01T16:12:42;2;2;
39955;PMS5003;25631;51.516;-0.470;2022-09-01T16:15:20;2;2;
39955;PMS5003;25631;51.516;-0.470;2022-09-01T16:18:05;2;1;
39955;PMS5003;25631;51.516;-0.470;2022-09-01T16:20:53;2;1;
39955;PMS5003;25631;51.516;-0.470;2022-09-01T16:23:38;3;2;
39955;PMS5003;25631;51.516;-0.470;2022-09-01T16:26:18;3;2;
39955;PMS5003;25631;51.516;-0.470;2022-09-01T16:28:56;3;2;
39955;PMS5003;25631;51.516;-0.470;2022-09-01T16:31:34;3;1;
39955;PMS5003;25631;51.516;-0.470;2022-09-01T16:34:12;3;1;
39955;PMS5003;25631;51.516;-0.470;2022-09-01T16:36:52;3;1;
39955;PMS5003;25631;51.516;-0.470;2022-09-01T16:39:38;2;1;
39955;PMS5003;25631;51.516;-0.470;2022-09-01T16:42:22;2;1;
39955;PMS5003;25631;51.516;-0.470;2022-09-01T16:45:06;2;1;
39955;PMS5003;25631;51.516;-0.470;2022-09-01T16:47:55;2;1;
39955;PMS5003;25631;51.516;-0.470;2022-09-01T16:50:39;2;1;
39955;PMS5003;25631;51.516;-0.470;2022-09-01T16:53:23;2;1;
39955;PMS5003;25631;51.516;-0.470;2022-09-01T16:56:08;2;1;
39955;PMS5003;25631;51.516;-0.470;2022-09-01T16:58:50;2;1;
39955;PMS5003;25631;51.516;-0.470;2022-09-01T17:01:36;4;2;
39955;PMS5003;25631;51.516;-0.470;2022-09-01T17:04:26;3;2;
39955;PMS5003;25631;51.516;-0.470;2022-09-01T17:07:13;3;2;
39955;PMS5003;25631;51.516;-0.470;2022-09-01T17:09:56;3;2;
39955;PMS5003;25631;51.516;-0.470;2022-09-01T17:12:41;3;2;
39955;PMS5003;25631;51.516;-0.470;2022-09-01T17:15:25;3;2;
39955;PMS5003;25631;51.516;-0.470;2022-09-01T17:18:08;3;2;
39955;PMS5003;25631;51.516;-0.470;2022-09-01T17:20:51;3;2;
39955;PMS5003;25631;51.516;-0.470;2022-09-01T17:23:36;3;2;
39955;PMS5003;25631;51.516;-0.470;2022-09-01T17:26:17;3;2;
39955;PMS5003;25631;51.516;-0.470;2022-09-01T17:28:59;2;2;
39955;PMS5003;25631;51.516;-0.470;2022-09-01T17:31:42;2;2;
39955;PMS5003;25631;51.516;-0.470;2022-09-01T17:34:31;2;2;
39955;PMS5003;25631;51.516;-0.470;2022-09-01T17:37:16;2;2;
39955;PMS5003;25631;51.516;-0.470;2022-09-01T17:40:02;2;2;
39955;PMS5003;25631;51.516;-0.470;2022-09-01T17:42:48;2;2;
39955;PMS5003;25631;51.516;-0.470;2022-09-01T17:45:29;2;2;
39955;PMS5003;25631;51.516;-0.470;2022-09-01T17:48:15;2;2;
39955;PMS5003;25631;51.516;-0.470;2022-09-01T17:50:57;2;2;
39955;PMS5003;25631;51.516;-0.470;2022-09-01T17:53:42;2;2;
39955;PMS5003;25631;51.516;-0.470;2022-09-01T17:56:34;2;2;
39955;PMS5003;25631;51.516;-0.470;2022-09-01T17:59:17;2;2;
39955;PMS5003;25631;51.516;-0.470;2022-09-01T18:02:07;3;2;